createdAt,value
2019-04-30T00:00:21.174Z,0.00
2019-04-30T00:01:21.207Z,0.00
2019-04-30T00:02:21.236Z,0.00
2019-04-30T00:03:21.272Z,0.00
2019-04-30T00:04:21.295Z,0.00
2019-04-30T00:05:21.324Z,0.00
2019-04-30T00:06:21.351Z,0.00
2019-04-30T00:07:21.382Z,0.00
2019-04-30T00:08:21.425Z,0.00
2019-04-30T00:09:21.443Z,0.00
2019-04-30T00:10:21.471Z,0.00
2019-04-30T00:11:21.502Z,0.00
2019-04-30T00:12:21.528Z,0.00
2019-04-30T00:13:21.556Z,0.00
2019-04-30T00:14:21.588Z,0.00
2019-04-30T00:15:21.615Z,0.00
2019-04-30T00:16:21.643Z,0.00
2019-04-30T00:17:21.673Z,0.00
2019-04-30T00:18:21.704Z,0.00
2019-04-30T00:19:21.731Z,0.00
2019-04-30T00:20:21.763Z,0.00
2019-04-30T00:21:21.787Z,0.00
2019-04-30T00:22:33.068Z,0.00
2019-04-30T00:23:22.715Z,0.00
2019-04-30T00:24:21.876Z,0.00
2019-04-30T00:25:26.909Z,0.00
2019-04-30T00:26:21.935Z,0.00
2019-04-30T00:27:26.370Z,0.00
2019-04-30T00:28:21.990Z,0.00
2019-04-30T00:29:26.963Z,0.00
2019-04-30T00:30:22.049Z,0.00
2019-04-30T00:31:23.852Z,0.00
2019-04-30T00:32:22.109Z,0.00
2019-04-30T00:33:25.076Z,0.00
2019-04-30T00:34:22.169Z,0.00
2019-04-30T00:35:22.193Z,0.00
2019-04-30T00:36:22.224Z,0.00
2019-04-30T00:37:22.248Z,0.00
2019-04-30T00:38:22.280Z,0.00
2019-04-30T00:39:22.312Z,0.00
2019-04-30T00:40:26.761Z,0.00
2019-04-30T00:41:22.363Z,0.00
2019-04-30T00:42:24.470Z,0.00
2019-04-30T00:43:22.420Z,0.00
2019-04-30T00:44:24.786Z,0.00
2019-04-30T00:45:22.479Z,0.00
2019-04-30T00:46:25.493Z,0.00
2019-04-30T00:47:22.536Z,0.00
2019-04-30T00:48:27.860Z,0.00
2019-04-30T00:49:24.171Z,0.00
2019-04-30T00:50:22.623Z,0.00
2019-04-30T00:51:22.650Z,0.00
2019-04-30T00:52:22.679Z,0.00
2019-04-30T00:53:22.713Z,0.00
2019-04-30T00:54:27.996Z,0.00
2019-04-30T00:55:22.768Z,0.00
2019-04-30T00:56:24.676Z,0.00
2019-04-30T00:57:22.819Z,0.00
2019-04-30T00:58:28.992Z,0.00
2019-04-30T00:59:22.877Z,0.00
2019-04-30T01:00:28.088Z,0.00
2019-04-30T01:01:22.935Z,0.00
2019-04-30T01:02:30.445Z,0.00
2019-04-30T01:03:22.990Z,0.00
2019-04-30T01:04:24.480Z,0.00
2019-04-30T01:05:23.050Z,0.00
2019-04-30T01:06:24.665Z,0.00
2019-04-30T01:07:23.107Z,0.00
2019-04-30T01:08:27.229Z,0.00
2019-04-30T01:09:23.161Z,0.00
2019-04-30T01:10:26.786Z,0.00
2019-04-30T01:11:23.219Z,0.00
2019-04-30T01:12:27.728Z,0.00
2019-04-30T01:13:23.276Z,0.00
2019-04-30T01:14:28.203Z,0.00
2019-04-30T01:15:23.334Z,0.00
2019-04-30T01:16:23.597Z,0.00
2019-04-30T01:17:23.389Z,0.00
2019-04-30T01:18:27.628Z,0.00
2019-04-30T01:19:29.982Z,0.00
2019-04-30T01:20:24.041Z,0.00
2019-04-30T01:21:23.504Z,0.00
2019-04-30T01:22:28.148Z,0.00
2019-04-30T01:23:23.564Z,0.00
2019-04-30T01:24:27.793Z,0.00
2019-04-30T01:25:23.622Z,0.00
2019-04-30T01:26:27.739Z,0.00
2019-04-30T01:27:23.677Z,0.00
2019-04-30T01:28:24.409Z,0.00
2019-04-30T01:29:23.737Z,0.00
2019-04-30T01:30:23.766Z,0.00
2019-04-30T01:31:23.794Z,0.00
2019-04-30T01:32:23.825Z,0.00
2019-04-30T01:33:28.421Z,0.00
2019-04-30T01:34:23.883Z,0.00
2019-04-30T01:35:28.280Z,0.00
2019-04-30T01:36:23.937Z,0.00
2019-04-30T01:37:28.330Z,0.00
2019-04-30T01:38:23.995Z,0.00
2019-04-30T01:39:28.434Z,0.00
2019-04-30T01:40:24.052Z,0.00
2019-04-30T01:41:27.350Z,0.00
2019-04-30T01:42:24.111Z,0.00
2019-04-30T01:43:31.591Z,0.00
2019-04-30T01:44:24.167Z,0.00
2019-04-30T01:45:28.182Z,0.00
2019-04-30T01:46:24.226Z,0.00
2019-04-30T01:47:27.690Z,0.00
2019-04-30T01:48:24.287Z,0.00
2019-04-30T01:49:26.656Z,0.00
2019-04-30T01:50:24.342Z,0.00
2019-04-30T01:51:24.370Z,0.00
2019-04-30T01:52:24.397Z,0.00
2019-04-30T01:53:24.426Z,0.00
2019-04-30T01:54:24.524Z,0.00
2019-04-30T01:55:24.486Z,0.00
2019-04-30T01:56:24.514Z,0.00
2019-04-30T01:57:24.547Z,0.00
2019-04-30T01:58:24.571Z,0.00
2019-04-30T01:59:24.600Z,0.00
2019-04-30T02:00:24.629Z,0.00
2019-04-30T02:01:24.662Z,0.00
2019-04-30T02:02:24.687Z,0.00
2019-04-30T02:03:24.716Z,0.00
2019-04-30T02:04:24.745Z,0.00
2019-04-30T02:05:24.776Z,0.00
2019-04-30T02:06:24.809Z,0.00
2019-04-30T02:07:24.831Z,0.00
2019-04-30T02:08:24.861Z,0.00
2019-04-30T02:09:24.895Z,0.00
2019-04-30T02:10:24.918Z,0.00
2019-04-30T02:11:24.948Z,0.00
2019-04-30T02:12:24.979Z,0.00
2019-04-30T02:13:25.004Z,0.00
2019-04-30T02:14:25.034Z,0.00
2019-04-30T02:15:25.062Z,0.00
2019-04-30T02:16:25.093Z,0.00
2019-04-30T02:17:25.120Z,0.00
2019-04-30T02:18:25.148Z,0.00
2019-04-30T02:19:25.180Z,0.00
2019-04-30T02:20:25.205Z,0.00
2019-04-30T02:21:25.234Z,0.00
2019-04-30T02:22:25.265Z,0.00
2019-04-30T02:23:25.291Z,0.00
2019-04-30T02:24:25.317Z,0.00
2019-04-30T02:25:25.348Z,0.00
2019-04-30T02:26:25.379Z,0.00
2019-04-30T02:27:25.403Z,0.00
2019-04-30T02:28:25.430Z,0.00
2019-04-30T02:29:25.460Z,0.00
2019-04-30T02:30:25.495Z,0.00
2019-04-30T02:31:25.517Z,5.63
2019-04-30T02:32:25.544Z,5.63
2019-04-30T02:33:25.573Z,5.63
2019-04-30T02:34:25.601Z,5.63
2019-04-30T02:35:25.631Z,5.63
2019-04-30T02:36:25.660Z,5.63
2019-04-30T02:37:25.683Z,5.63
2019-04-30T02:38:25.717Z,5.63
2019-04-30T02:39:25.740Z,5.63
2019-04-30T02:40:25.768Z,11.25
2019-04-30T02:41:25.801Z,11.25
2019-04-30T02:42:25.822Z,11.25
2019-04-30T02:43:25.851Z,11.25
2019-04-30T02:44:25.879Z,11.25
2019-04-30T02:45:25.907Z,11.25
2019-04-30T02:46:25.933Z,16.88
2019-04-30T02:47:25.962Z,16.88
2019-04-30T02:48:25.991Z,16.88
2019-04-30T02:49:26.018Z,16.88
2019-04-30T02:50:26.045Z,16.88
2019-04-30T02:51:26.070Z,22.50
2019-04-30T02:52:26.098Z,22.50
2019-04-30T02:53:26.127Z,22.50
2019-04-30T02:54:26.156Z,22.50
2019-04-30T02:55:26.181Z,28.13
2019-04-30T02:56:27.107Z,28.13
2019-04-30T02:57:26.235Z,28.13
2019-04-30T02:58:26.263Z,33.75
2019-04-30T02:59:26.292Z,33.75
2019-04-30T03:00:26.320Z,33.75
2019-04-30T03:01:26.348Z,33.75
2019-04-30T03:02:28.559Z,39.38
2019-04-30T03:03:26.398Z,39.38
2019-04-30T03:04:26.430Z,39.38
2019-04-30T03:05:26.456Z,45.00
2019-04-30T03:06:26.481Z,45.00
2019-04-30T03:07:26.507Z,45.00
2019-04-30T03:08:29.554Z,50.63
2019-04-30T03:09:26.560Z,50.63
2019-04-30T03:10:26.588Z,56.25
2019-04-30T03:11:26.614Z,56.25
2019-04-30T03:12:26.643Z,56.25
2019-04-30T03:13:29.708Z,61.88
2019-04-30T03:14:26.695Z,61.88
2019-04-30T03:15:29.602Z,61.88
2019-04-30T03:16:26.752Z,61.88
2019-04-30T03:17:29.282Z,61.88
2019-04-30T03:18:26.804Z,67.50
2019-04-30T03:19:29.327Z,67.50
2019-04-30T03:20:32.668Z,67.50
2019-04-30T03:21:29.038Z,67.50
2019-04-30T03:22:26.914Z,73.13
2019-04-30T03:23:29.305Z,73.13
2019-04-30T03:24:29.417Z,73.13
2019-04-30T03:25:29.807Z,73.13
2019-04-30T03:26:29.617Z,78.75
2019-04-30T03:27:27.053Z,84.38
2019-04-30T03:28:29.896Z,84.38
2019-04-30T03:29:27.101Z,84.38
2019-04-30T03:30:31.539Z,90.00
2019-04-30T03:31:27.156Z,95.63
2019-04-30T03:32:35.856Z,101.25
2019-04-30T03:33:32.181Z,101.25
2019-04-30T03:34:31.826Z,101.25
2019-04-30T03:35:31.753Z,101.25
2019-04-30T03:36:27.291Z,112.50
2019-04-30T03:37:29.406Z,112.50
2019-04-30T03:38:30.036Z,123.75
2019-04-30T03:39:29.726Z,140.63
2019-04-30T03:40:30.053Z,151.88
2019-04-30T03:41:33.096Z,163.13
2019-04-30T03:42:29.428Z,168.75
2019-04-30T03:43:30.003Z,157.50
2019-04-30T03:44:31.596Z,146.25
2019-04-30T03:45:30.020Z,135.00
2019-04-30T03:46:29.817Z,129.38
2019-04-30T03:47:29.932Z,140.63
2019-04-30T03:48:29.348Z,151.88
2019-04-30T03:49:29.784Z,146.25
2019-04-30T03:50:32.841Z,146.25
2019-04-30T03:51:29.867Z,157.50
2019-04-30T03:52:29.155Z,174.38
2019-04-30T03:53:29.759Z,163.13
2019-04-30T03:54:29.245Z,157.50
2019-04-30T03:55:29.434Z,157.50
2019-04-30T03:56:29.898Z,168.75
2019-04-30T03:57:30.186Z,174.38
2019-04-30T03:58:29.266Z,168.75
2019-04-30T03:59:30.077Z,180.00
2019-04-30T04:00:29.991Z,191.25
2019-04-30T04:01:29.487Z,196.88
2019-04-30T04:02:30.059Z,196.88
2019-04-30T04:03:29.712Z,208.13
2019-04-30T04:04:30.775Z,225.00
2019-04-30T04:05:29.862Z,230.63
2019-04-30T04:06:29.273Z,230.63
2019-04-30T04:07:29.944Z,230.63
2019-04-30T04:08:29.328Z,230.63
2019-04-30T04:09:29.991Z,208.13
2019-04-30T04:10:29.778Z,208.13
2019-04-30T04:11:29.733Z,219.38
2019-04-30T04:12:30.460Z,236.25
2019-04-30T04:13:30.065Z,225.00
2019-04-30T04:14:29.619Z,230.63
2019-04-30T04:15:29.921Z,225.00
2019-04-30T04:16:31.783Z,264.38
2019-04-30T04:17:31.072Z,286.88
2019-04-30T04:18:30.210Z,264.38
2019-04-30T04:19:29.264Z,286.88
2019-04-30T04:20:29.843Z,275.63
2019-04-30T04:21:29.970Z,264.38
2019-04-30T04:22:30.706Z,264.38
2019-04-30T04:23:32.319Z,236.25
2019-04-30T04:24:30.237Z,253.13
2019-04-30T04:25:29.924Z,264.38
2019-04-30T04:26:29.886Z,264.38
2019-04-30T04:27:30.297Z,247.50
2019-04-30T04:28:29.978Z,241.88
2019-04-30T04:29:29.848Z,264.38
2019-04-30T04:30:29.816Z,275.63
2019-04-30T04:31:29.883Z,270.00
2019-04-30T04:32:30.839Z,286.88
2019-04-30T04:33:29.617Z,275.63
2019-04-30T04:34:30.238Z,315.00
2019-04-30T04:35:29.971Z,399.38
2019-04-30T04:36:30.247Z,382.50
2019-04-30T04:37:30.194Z,416.25
2019-04-30T04:38:30.400Z,506.25
2019-04-30T04:39:29.766Z,540.00
2019-04-30T04:40:30.275Z,472.50
2019-04-30T04:41:29.631Z,416.25
2019-04-30T04:42:32.711Z,382.50
2019-04-30T04:43:30.044Z,410.63
2019-04-30T04:44:29.527Z,405.00
2019-04-30T04:45:30.555Z,495.00
2019-04-30T04:46:30.810Z,562.50
2019-04-30T04:47:30.946Z,545.63
2019-04-30T04:48:29.922Z,573.75
2019-04-30T04:49:30.528Z,618.75
2019-04-30T04:50:30.363Z,646.88
2019-04-30T04:51:38.074Z,680.63
2019-04-30T04:52:31.547Z,669.38
2019-04-30T04:53:30.360Z,613.13
2019-04-30T04:54:30.093Z,630.00
2019-04-30T04:55:30.119Z,686.25
2019-04-30T04:56:30.485Z,759.38
2019-04-30T04:57:30.360Z,781.88
2019-04-30T04:58:30.437Z,781.88
2019-04-30T04:59:29.843Z,781.88
2019-04-30T05:00:29.836Z,731.25
2019-04-30T05:01:29.867Z,714.38
2019-04-30T05:02:32.763Z,675.00
2019-04-30T05:03:30.001Z,641.25
2019-04-30T05:04:29.986Z,630.00
2019-04-30T05:05:30.067Z,669.38
2019-04-30T05:06:30.051Z,669.38
2019-04-30T05:07:30.080Z,731.25
2019-04-30T05:08:30.115Z,731.25
2019-04-30T05:09:30.147Z,708.75
2019-04-30T05:10:30.185Z,781.88
2019-04-30T05:11:31.675Z,804.38
2019-04-30T05:12:30.261Z,765.00
2019-04-30T05:13:30.294Z,686.25
2019-04-30T05:14:30.329Z,720.00
2019-04-30T05:15:30.366Z,765.00
2019-04-30T05:16:30.405Z,781.88
2019-04-30T05:17:32.105Z,832.50
2019-04-30T05:18:30.477Z,855.00
2019-04-30T05:19:30.512Z,838.13
2019-04-30T05:20:30.550Z,815.63
2019-04-30T05:21:41.741Z,888.75
2019-04-30T05:22:30.628Z,781.88
2019-04-30T05:23:30.665Z,770.63
2019-04-30T05:24:30.697Z,883.13
2019-04-30T05:25:30.738Z,877.50
2019-04-30T05:26:30.777Z,883.13
2019-04-30T05:27:30.814Z,922.50
2019-04-30T05:28:30.848Z,984.38
2019-04-30T05:29:30.887Z,984.38
2019-04-30T05:30:30.930Z,995.63
2019-04-30T05:31:30.963Z,1006.88
2019-04-30T05:32:31.002Z,984.38
2019-04-30T05:33:31.042Z,995.63
2019-04-30T05:34:31.078Z,1057.50
2019-04-30T05:35:31.287Z,1001.25
2019-04-30T05:36:31.157Z,945.00
2019-04-30T05:37:31.194Z,900.00
2019-04-30T05:38:31.455Z,956.25
2019-04-30T05:39:31.272Z,1091.25
2019-04-30T05:40:31.310Z,1057.50
2019-04-30T05:41:31.350Z,995.63
2019-04-30T05:42:31.392Z,1046.25
2019-04-30T05:43:31.431Z,1119.38
2019-04-30T05:44:31.468Z,1153.13
2019-04-30T05:45:33.636Z,1153.13
2019-04-30T05:46:31.552Z,1108.13
2019-04-30T05:47:31.588Z,1119.38
2019-04-30T05:48:31.631Z,1113.75
2019-04-30T05:49:31.669Z,1209.38
2019-04-30T05:50:31.711Z,1299.38
2019-04-30T05:51:31.749Z,1147.50
2019-04-30T05:52:31.788Z,1046.25
2019-04-30T05:53:31.829Z,1102.50
2019-04-30T05:54:31.870Z,1186.88
2019-04-30T05:55:31.912Z,1209.38
2019-04-30T05:56:31.955Z,1198.13
2019-04-30T05:57:31.995Z,1181.25
2019-04-30T05:58:32.037Z,1254.38
2019-04-30T05:59:32.079Z,1276.88
2019-04-30T06:00:32.120Z,1237.50
2019-04-30T06:01:32.158Z,1265.63
2019-04-30T06:02:34.041Z,1321.88
2019-04-30T06:03:33.287Z,1260.00
2019-04-30T06:04:32.280Z,1226.25
2019-04-30T06:05:32.323Z,1271.25
2019-04-30T06:06:33.681Z,1282.50
2019-04-30T06:07:32.407Z,1181.25
2019-04-30T06:08:32.449Z,1175.63
2019-04-30T06:09:34.008Z,1203.75
2019-04-30T06:10:32.531Z,1186.88
2019-04-30T06:11:32.574Z,1220.63
2019-04-30T06:12:32.615Z,1102.50
2019-04-30T06:13:32.657Z,1175.63
2019-04-30T06:14:32.700Z,1265.63
2019-04-30T06:15:32.744Z,1327.50
2019-04-30T06:16:32.783Z,1344.38
2019-04-30T06:17:32.827Z,1282.50
2019-04-30T06:18:32.869Z,1209.38
2019-04-30T06:19:32.914Z,1226.25
2019-04-30T06:20:32.954Z,1198.13
2019-04-30T06:21:32.994Z,1158.75
2019-04-30T06:22:33.038Z,1147.50
2019-04-30T06:23:33.081Z,1091.25
2019-04-30T06:24:33.123Z,1080.00
2019-04-30T06:25:45.738Z,1074.38
2019-04-30T06:26:33.207Z,1102.50
2019-04-30T06:27:33.248Z,1108.13
2019-04-30T06:28:33.289Z,1237.50
2019-04-30T06:29:33.334Z,1288.13
2019-04-30T06:30:33.375Z,1361.25
2019-04-30T06:31:37.397Z,1366.88
2019-04-30T06:32:33.458Z,1372.50
2019-04-30T06:33:33.499Z,1344.38
2019-04-30T06:34:33.543Z,1361.25
2019-04-30T06:35:33.582Z,1366.88
2019-04-30T06:36:33.624Z,1361.25
2019-04-30T06:37:33.666Z,1366.88
2019-04-30T06:38:33.711Z,1389.38
2019-04-30T06:39:33.751Z,1321.88
2019-04-30T06:40:33.790Z,1361.25
2019-04-30T06:41:33.833Z,1344.38
2019-04-30T06:42:33.875Z,1305.00
2019-04-30T06:43:33.919Z,1316.25
2019-04-30T06:44:38.279Z,1389.38
2019-04-30T06:45:34.003Z,1400.63
2019-04-30T06:46:34.046Z,1378.13
2019-04-30T06:47:34.087Z,1383.75
2019-04-30T06:48:34.171Z,1333.13
2019-04-30T06:49:34.172Z,1355.63
2019-04-30T06:50:34.216Z,1209.38
2019-04-30T06:51:34.268Z,928.13
2019-04-30T06:52:34.300Z,939.38
2019-04-30T06:53:34.342Z,883.13
2019-04-30T06:54:34.385Z,945.00
2019-04-30T06:55:34.430Z,1091.25
2019-04-30T06:56:34.469Z,1366.88
2019-04-30T06:57:34.511Z,1288.13
2019-04-30T06:58:34.555Z,1023.75
2019-04-30T06:59:34.596Z,984.38
2019-04-30T07:00:35.577Z,1096.88
2019-04-30T07:01:34.680Z,1040.63
2019-04-30T07:02:34.724Z,1198.13
2019-04-30T07:03:34.762Z,1248.75
2019-04-30T07:04:34.805Z,1333.13
2019-04-30T07:05:34.849Z,1485.00
2019-04-30T07:06:37.100Z,1513.13
2019-04-30T07:07:39.007Z,1535.63
2019-04-30T07:08:39.651Z,1524.38
2019-04-30T07:09:49.545Z,1648.13
2019-04-30T07:10:35.061Z,1760.63
2019-04-30T07:11:35.098Z,1755.00
2019-04-30T07:12:35.140Z,1726.88
2019-04-30T07:13:35.182Z,1687.50
2019-04-30T07:14:35.225Z,1586.25
2019-04-30T07:15:35.268Z,1479.38
2019-04-30T07:16:35.314Z,1406.25
2019-04-30T07:17:35.354Z,1389.38
2019-04-30T07:18:35.459Z,1372.50
2019-04-30T07:19:51.088Z,1395.00
2019-04-30T07:20:35.486Z,1141.88
2019-04-30T07:21:36.416Z,1198.13
2019-04-30T07:22:41.061Z,1198.13
2019-04-30T07:23:35.621Z,1203.75
2019-04-30T07:24:35.661Z,1220.63
2019-04-30T07:25:35.706Z,1203.75
2019-04-30T07:26:35.750Z,1226.25
2019-04-30T07:27:35.791Z,1366.88
2019-04-30T07:28:44.628Z,1338.75
2019-04-30T07:29:35.875Z,1288.13
2019-04-30T07:30:35.980Z,1226.25
2019-04-30T07:31:35.963Z,1220.63
2019-04-30T07:32:36.005Z,1293.75
2019-04-30T07:33:36.050Z,1462.50
2019-04-30T07:34:37.157Z,1507.50
2019-04-30T07:35:36.138Z,1400.63
2019-04-30T07:37:36.226Z,1198.13
2019-04-30T07:38:45.670Z,1260.00
2019-04-30T07:39:36.309Z,1355.63
2019-04-30T07:40:36.353Z,1350.00
2019-04-30T07:41:36.396Z,1327.50
2019-04-30T07:42:42.610Z,1203.75
2019-04-30T07:43:39.052Z,1057.50
2019-04-30T07:44:36.825Z,990.00
2019-04-30T07:45:36.573Z,1074.38
2019-04-30T07:46:41.168Z,1108.13
2019-04-30T07:47:36.660Z,1170.00
2019-04-30T07:48:36.701Z,1198.13
2019-04-30T07:49:49.869Z,1254.38
2019-04-30T07:50:37.217Z,1327.50
2019-04-30T07:51:40.268Z,1400.63
2019-04-30T07:52:55.431Z,1552.50
2019-04-30T07:53:36.915Z,1591.88
2019-04-30T07:54:36.955Z,1558.13
2019-04-30T07:55:39.103Z,1743.75
2019-04-30T07:56:38.773Z,1681.88
2019-04-30T07:57:40.143Z,1788.75
2019-04-30T07:58:39.095Z,1760.63
2019-04-30T07:59:37.171Z,1856.25
2019-04-30T08:00:40.079Z,1839.38
2019-04-30T08:01:37.256Z,1726.88
2019-04-30T08:02:41.547Z,1884.38
2019-04-30T08:03:39.533Z,1800.00
2019-04-30T08:04:37.385Z,2092.50
2019-04-30T08:05:40.003Z,2250.00
2019-04-30T08:06:39.530Z,2193.75
2019-04-30T08:07:39.166Z,2098.13
2019-04-30T08:08:40.557Z,1963.13
2019-04-30T08:09:34.987Z,1389.38
2019-04-30T08:09:41.880Z,1732.50
2019-04-30T08:10:39.384Z,1968.75
2019-04-30T08:11:41.872Z,2126.25
2019-04-30T08:12:41.886Z,2070.00
2019-04-30T08:13:40.515Z,1901.25
2019-04-30T08:14:39.092Z,1766.25
2019-04-30T08:15:37.878Z,1766.25
2019-04-30T08:16:38.629Z,1563.75
2019-04-30T08:17:38.914Z,1434.38
2019-04-30T08:18:39.224Z,1344.38
2019-04-30T08:19:38.490Z,1361.25
2019-04-30T08:20:39.284Z,1237.50
2019-04-30T08:21:38.771Z,1271.25
2019-04-30T08:22:40.862Z,1485.00
2019-04-30T08:23:39.718Z,1642.50
2019-04-30T08:24:39.122Z,1400.63
2019-04-30T08:25:39.098Z,1366.88
2019-04-30T08:26:39.778Z,1456.88
2019-04-30T08:27:39.300Z,1355.63
2019-04-30T08:28:38.774Z,1636.88
2019-04-30T08:29:39.515Z,1845.00
2019-04-30T08:30:39.183Z,1996.88
2019-04-30T08:31:40.626Z,2120.63
2019-04-30T08:32:38.741Z,2098.13
2019-04-30T08:33:40.225Z,2070.00
2019-04-30T08:34:39.344Z,2075.63
2019-04-30T08:35:39.755Z,2171.25
2019-04-30T08:36:38.804Z,2131.88
2019-04-30T08:37:38.849Z,2070.00
2019-04-30T08:38:39.484Z,2058.75
2019-04-30T08:39:39.723Z,2148.75
2019-04-30T08:40:47.226Z,2013.75
2019-04-30T08:41:39.297Z,1811.25
2019-04-30T08:42:40.408Z,1423.13
2019-04-30T08:43:39.491Z,1608.75
2019-04-30T08:44:39.680Z,1620.00
2019-04-30T08:45:39.212Z,1636.88
2019-04-30T08:46:39.262Z,1676.25
2019-04-30T08:47:39.411Z,1603.13
2019-04-30T08:48:47.826Z,1597.50
2019-04-30T08:49:40.511Z,1946.25
2019-04-30T08:50:40.016Z,2176.88
2019-04-30T08:51:40.053Z,1895.63
2019-04-30T08:52:39.599Z,1428.75
2019-04-30T08:53:41.071Z,1586.25
2019-04-30T08:54:39.631Z,1800.00
2019-04-30T08:55:39.677Z,1918.13
2019-04-30T08:56:39.733Z,1771.88
2019-04-30T08:57:39.771Z,1608.75
2019-04-30T08:58:39.818Z,1659.38
2019-04-30T08:59:39.865Z,1428.75
2019-04-30T09:00:39.917Z,1355.63
2019-04-30T09:01:39.962Z,1260.00
2019-04-30T09:02:40.008Z,1265.63
2019-04-30T09:03:40.055Z,1108.13
2019-04-30T09:04:40.105Z,1125.00
2019-04-30T09:05:40.155Z,1102.50
2019-04-30T09:06:40.338Z,1096.88
2019-04-30T09:07:40.241Z,1147.50
2019-04-30T09:08:40.360Z,1080.00
2019-04-30T09:09:40.335Z,1096.88
2019-04-30T09:10:40.384Z,1136.25
2019-04-30T09:11:51.719Z,1158.75
2019-04-30T09:12:40.476Z,1260.00
2019-04-30T09:13:40.522Z,1293.75
2019-04-30T09:14:40.747Z,1299.38
2019-04-30T09:15:40.615Z,1541.25
2019-04-30T09:16:40.689Z,1625.63
2019-04-30T09:17:40.711Z,1681.88
2019-04-30T09:18:40.754Z,1620.00
2019-04-30T09:19:40.801Z,1738.13
2019-04-30T09:20:41.035Z,1676.25
2019-04-30T09:21:40.897Z,1805.63
2019-04-30T09:22:40.945Z,1698.75
2019-04-30T09:23:47.979Z,1546.88
2019-04-30T09:24:41.037Z,1575.00
2019-04-30T09:25:41.084Z,1620.00
2019-04-30T09:26:41.136Z,1507.50
2019-04-30T09:27:41.184Z,1321.88
2019-04-30T09:28:41.232Z,1468.13
2019-04-30T09:29:41.275Z,1411.88
2019-04-30T09:30:41.324Z,1327.50
2019-04-30T09:31:41.374Z,1282.50
2019-04-30T09:32:41.421Z,1445.63
2019-04-30T09:33:41.467Z,1490.63
2019-04-30T09:34:41.515Z,1518.75
2019-04-30T09:35:41.565Z,1501.88
2019-04-30T09:36:41.606Z,1366.88
2019-04-30T09:37:41.864Z,1327.50
2019-04-30T09:38:41.706Z,1389.38
2019-04-30T09:39:41.752Z,1462.50
2019-04-30T09:40:41.883Z,1575.00
2019-04-30T09:41:41.849Z,1631.25
2019-04-30T09:42:41.894Z,1479.38
2019-04-30T09:43:41.943Z,1490.63
2019-04-30T09:44:41.990Z,1406.25
2019-04-30T09:45:42.044Z,1580.63
2019-04-30T09:46:42.088Z,1530.00
2019-04-30T09:47:42.195Z,1276.88
2019-04-30T09:48:42.185Z,1310.63
2019-04-30T09:49:42.227Z,1220.63
2019-04-30T09:50:42.344Z,1231.88
2019-04-30T09:51:42.527Z,1102.50
2019-04-30T09:52:42.820Z,1130.63
2019-04-30T09:53:42.418Z,945.00
2019-04-30T09:54:42.554Z,1366.88
2019-04-30T09:55:42.513Z,1456.88
2019-04-30T09:56:42.556Z,1288.13
2019-04-30T09:57:42.606Z,1395.00
2019-04-30T09:58:42.650Z,1535.63
2019-04-30T09:59:42.703Z,1456.88
2019-04-30T10:00:42.745Z,1406.25
2019-04-30T10:01:42.788Z,1417.50
2019-04-30T10:02:42.836Z,1378.13
2019-04-30T10:03:43.306Z,1366.88
2019-04-30T10:04:43.451Z,1333.13
2019-04-30T10:05:42.977Z,1282.50
2019-04-30T10:06:43.024Z,1170.00
2019-04-30T10:07:43.069Z,1170.00
2019-04-30T10:08:48.433Z,1141.88
2019-04-30T10:09:43.161Z,1113.75
2019-04-30T10:10:43.207Z,1147.50
2019-04-30T10:11:43.252Z,1113.75
2019-04-30T10:12:43.307Z,1276.88
2019-04-30T10:13:43.346Z,1260.00
2019-04-30T10:14:43.394Z,1271.25
2019-04-30T10:15:43.436Z,1366.88
2019-04-30T10:16:43.482Z,1417.50
2019-04-30T10:17:43.534Z,1535.63
2019-04-30T10:18:43.576Z,1524.38
2019-04-30T10:19:43.623Z,1541.25
2019-04-30T10:20:43.671Z,1603.13
2019-04-30T10:21:43.731Z,1563.75
2019-04-30T10:22:43.764Z,1563.75
2019-04-30T10:23:43.806Z,1563.75
2019-04-30T10:24:43.853Z,1473.75
2019-04-30T10:25:43.903Z,1440.00
2019-04-30T10:26:43.945Z,1546.88
2019-04-30T10:27:43.995Z,1704.38
2019-04-30T10:28:44.072Z,1681.88
2019-04-30T10:29:44.092Z,1721.25
2019-04-30T10:30:44.135Z,1771.88
2019-04-30T10:31:44.186Z,1794.38
2019-04-30T10:32:44.229Z,1766.25
2019-04-30T10:33:44.280Z,1833.75
2019-04-30T10:34:44.323Z,1878.75
2019-04-30T10:35:44.377Z,1901.25
2019-04-30T10:36:44.440Z,1980.00
2019-04-30T10:37:44.467Z,1957.50
2019-04-30T10:38:44.519Z,2008.13
2019-04-30T10:39:44.599Z,2041.88
2019-04-30T10:40:44.623Z,1935.00
2019-04-30T10:41:44.660Z,1901.25
2019-04-30T10:42:44.709Z,2019.38
2019-04-30T10:43:44.757Z,1906.88
2019-04-30T10:44:44.803Z,1935.00
2019-04-30T10:45:44.852Z,1845.00
2019-04-30T10:46:44.903Z,1783.13
2019-04-30T10:47:44.948Z,1732.50
2019-04-30T10:48:44.997Z,1704.38
2019-04-30T10:49:45.044Z,1310.63
2019-04-30T10:50:45.094Z,1524.38
2019-04-30T10:51:45.141Z,1254.38
2019-04-30T10:52:45.190Z,1473.75
2019-04-30T10:53:45.238Z,1659.38
2019-04-30T10:54:45.286Z,1884.38
2019-04-30T10:55:45.333Z,1901.25
2019-04-30T10:56:45.382Z,1310.63
2019-04-30T10:57:45.427Z,1710.00
2019-04-30T10:58:45.483Z,1316.25
2019-04-30T10:59:45.519Z,1001.25
2019-04-30T11:00:45.575Z,939.38
2019-04-30T11:01:45.616Z,1406.25
2019-04-30T11:02:45.659Z,1839.38
2019-04-30T11:03:45.709Z,1946.25
2019-04-30T11:04:45.755Z,1811.25
2019-04-30T11:05:45.798Z,1496.25
2019-04-30T11:06:45.850Z,1389.38
2019-04-30T11:07:45.889Z,1861.88
2019-04-30T11:08:45.935Z,1676.25
2019-04-30T11:09:45.980Z,1366.88
2019-04-30T11:10:46.024Z,1395.00
2019-04-30T11:11:46.072Z,1372.50
2019-04-30T11:12:46.114Z,1344.38
2019-04-30T11:13:46.160Z,1321.88
2019-04-30T11:14:46.204Z,1710.00
2019-04-30T11:15:46.248Z,1653.75
2019-04-30T11:16:46.559Z,1788.75
2019-04-30T11:17:46.554Z,1597.50
2019-04-30T11:18:46.658Z,1501.88
2019-04-30T11:19:46.643Z,1490.63
2019-04-30T11:20:46.686Z,1771.88
2019-04-30T11:21:46.665Z,1710.00
2019-04-30T11:22:46.663Z,1434.38
2019-04-30T11:23:46.796Z,1181.25
2019-04-30T11:24:56.588Z,1068.75
2019-04-30T11:25:47.491Z,1164.38
2019-04-30T11:26:49.544Z,1057.50
2019-04-30T11:27:47.325Z,1186.88
2019-04-30T11:28:47.056Z,1411.88
2019-04-30T11:29:48.898Z,1687.50
2019-04-30T11:30:47.181Z,1800.00
2019-04-30T11:31:47.225Z,1873.13
2019-04-30T11:32:47.254Z,1923.75
2019-04-30T11:33:47.351Z,1839.38
2019-04-30T11:34:47.100Z,1895.63
2019-04-30T11:35:47.149Z,1940.63
2019-04-30T11:36:47.190Z,1968.75
2019-04-30T11:37:47.234Z,2002.50
2019-04-30T11:38:48.776Z,1861.88
2019-04-30T11:39:47.329Z,1856.25
2019-04-30T11:40:48.594Z,2053.13
2019-04-30T11:41:47.418Z,2098.13
2019-04-30T11:42:47.465Z,2070.00
2019-04-30T11:43:49.518Z,1940.63
2019-04-30T11:44:48.793Z,2047.50
2019-04-30T11:45:47.609Z,2092.50
2019-04-30T11:46:49.461Z,2058.75
2019-04-30T11:47:53.361Z,2064.38
2019-04-30T11:48:48.975Z,2013.75
2019-04-30T11:49:47.792Z,1946.25
2019-04-30T11:50:49.706Z,1912.50
2019-04-30T11:51:47.885Z,1985.63
2019-04-30T11:52:47.931Z,1946.25
2019-04-30T11:53:48.976Z,1895.63
2019-04-30T11:54:51.425Z,1861.88
2019-04-30T11:55:49.184Z,1906.88
2019-04-30T11:56:50.317Z,1816.88
2019-04-30T11:57:49.514Z,1777.50
2019-04-30T11:58:48.905Z,1743.75
2019-04-30T11:59:48.263Z,1575.00
2019-04-30T12:00:49.453Z,1473.75
2019-04-30T12:01:48.359Z,1451.25
2019-04-30T12:02:52.639Z,1479.38
2019-04-30T12:03:49.695Z,1530.00
2019-04-30T12:04:49.438Z,1535.63
2019-04-30T12:05:49.215Z,1451.25
2019-04-30T12:06:48.598Z,1338.75
2019-04-30T12:07:50.660Z,1338.75
2019-04-30T12:08:49.194Z,1451.25
2019-04-30T12:09:48.742Z,1625.63
2019-04-30T12:10:48.791Z,1732.50
2019-04-30T12:11:50.653Z,1743.75
2019-04-30T12:12:48.887Z,1620.00
2019-04-30T12:13:48.936Z,1524.38
2019-04-30T12:14:49.461Z,1428.75
2019-04-30T12:15:50.189Z,1440.00
2019-04-30T12:16:50.703Z,1496.25
2019-04-30T12:17:49.132Z,1490.63
2019-04-30T12:18:49.179Z,1445.63
2019-04-30T12:19:49.228Z,1445.63
2019-04-30T12:20:49.276Z,1428.75
2019-04-30T12:21:49.325Z,1485.00
2019-04-30T12:22:49.466Z,1552.50
2019-04-30T12:23:49.425Z,1434.38
2019-04-30T12:25:02.027Z,1321.88
2019-04-30T12:25:49.523Z,1321.88
2019-04-30T12:26:49.573Z,1383.75
2019-04-30T12:27:49.621Z,1125.00